Potsdam, NY

44° 42' 44"N, 74° 57' 12"W, Elevation 460 ft.
Eastern Time

Hourly observations for the last 72 hours

Date Time Temperature (°F) Humi-
dity

(%)
Wind
(mph)
Pressure Rain (in) Sun
(W/m2)
ET
(in)
Air Dew 6 Hour 1 Hr 3 Hr 6 Hr Day
Alt
(in)
Sea
Level

(mb)
Max Min
26 20:00 46.0 45.2 47.8 45.8 97 SSW 2 G 7 29.79 1008.8 0.01 0.03 0.11 0 0.027
26 19:00 46.1 45.3 97 WSW 2 G 8 29.77 1008.2 0.11 54 0.026
26 18:00 45.9 45.1 97 WSW 2 G 10 29.76 1007.9 0.01 0.11 21 0.026
26 17:00 46.9 45.8 96 W 2 G 6 29.74 1007.2 0.02 0.02 0.10 32 0.024
26 16:00 47.1 45.5 94 W 4 G 13 29.72 1006.3 0.08 91 0.022
26 15:00 47.3 45.7 94 W 0 G 9 29.69 1005.6 0.08 172 0.019
26 14:00 47.6 46.0 47.9 42.6 94 Calm 29.68 1005.1 0.02 0.05 0.05 0.08 381 0.014
26 13:00 46.6 45.2 95 WNW 0 G 1 29.67 1004.7 0.03 0.06 285 0.010
26 12:00 46.3 45.2 96 W 0 G 16 29.66 1004.3 0.03 246 0.006
26 11:00 43.8 43.0 97 W 0 G 15 29.65 1004.1 0.03 185 0.004
26 10:00 43.0 42.2 97 W 0 G 3 29.65 1004.0 0.03 81 0.002
26 09:00 42.7 41.6 96 WSW 0 G 8 29.64 1003.7 0.03 62 0.001
26 08:00 42.7 41.6 52.2 42.6 96 W 0 G 7 29.62 1003.2 0.01 0.02 0.03 74 0.000
26 07:00 43.0 42.2 97 W 3 G 10 29.61 1002.8 0.03 12 0.000
26 06:00 45.0 44.2 97 W 3 G 9 29.59 1002.2 0.01 0.03 0 0.000
26 05:00 49.2 48.7 98 W 4 G 13 29.58 1001.8 0.01 0.02 0 0.000
26 04:00 50.3 49.8 98 WSW 2 G 13 29.59 1001.9 0.01 0.02 0 0.000
26 03:00 51.4 50.9 98 WSW 1 G 6 29.58 1001.9 0.01 0 0.000
26 02:00 52.2 51.7 53.5 52.1 98 WSW 1 G 6 29.59 1002.2 0.01 0.02 0.03 0.01 0 0.000
26 01:00 52.2 51.7 98 S 0 G 1 29.61 1002.7 0.00 0 0.000
26 00:00 52.1 51.6 98 S 0 G 5 29.63 1003.3 0.01 0.39 0 0.041
25 23:00 52.1 51.3 97 Calm 29.65 1004.0 0.01 0.38 0 0.041
25 22:00 52.4 51.6 97 Calm 29.67 1004.7 0.38 0 0.041
25 21:00 52.8 52.0 97 Calm 29.68 1005.0 0.01 0.38 0 0.041
25 20:00 53.5 52.7 56.3 53.5 97 E 0 G 1 29.68 1005.2 0.07 0.15 0.24 0.37 0 0.041
25 19:00 54.8 54.0 97 Calm 29.70 1005.8 0.07 0.30 7 0.041
25 18:00 55.5 54.7 97 E 0 G 2 29.71 1006.1 0.01 0.23 26 0.040
25 17:00 55.7 54.6 96 ENE 0 G 3 29.73 1006.8 0.03 0.09 0.22 65 0.039
25 16:00 55.8 54.7 96 E 2 G 6 29.75 1007.6 0.04 0.19 90 0.037
25 15:00 56.1 54.4 94 NNE 0 G 2 29.78 1008.7 0.02 0.15 95 0.034
25 14:00 55.8 54.1 56.5 50.9 94 NE 1 G 4 29.81 1009.7 0.05 0.08 0.12 0.13 174 0.030
25 13:00 55.9 53.6 92 E 0 G 6 29.85 1010.8 0.03 0.08 179 0.026
25 12:00 55.3 52.4 90 ENE 1 G 6 29.89 1012.2 0.05 246 0.021
25 11:00 54.5 52.2 92 E 0 G 6 29.92 1013.3 0.03 0.04 0.05 274 0.017
25 10:00 53.6 49.8 87 ENE 0 G 3 29.95 1014.2 0.02 130 0.015
25 09:00 52.3 48.5 87 ESE 0 G 4 29.97 1014.9 0.01 0.02 77 0.013
25 08:00 50.9 48.1 59.6 50.4 90 Calm 29.99 1015.7 0.01 0.01 0.01 0.01 60 0.012
25 07:00 51.5 45.5 80 SSE 0 G 7 30.01 1016.2 0.00 23 0.012
25 06:00 51.1 43.1 74 Calm 30.00 1016.1 0.00 0 0.011
25 05:00 54.0 40.4 60 Calm 30.00 1016.1 0.00 0 0.010
25 04:00 57.0 40.5 54 WNW 0 G 5 30.02 1016.8 0.00 0 0.008
25 03:00 58.4 40.9 52 S 5 G 11 30.02 1016.7 0.00 0 0.005
25 02:00 59.6 41.0 60.2 53.8 50 S 2 G 10 30.03 1017.0 0.00 0 0.002
25 01:00 57.7 37.6 47 S 3 G 9 30.05 1017.6 0.00 0 0.000
25 00:00 55.8 38.9 53 S 2 G 6 30.05 1017.5 0.00 0 0.159
24 23:00 54.1 41.0 61 SSE 1 G 3 30.06 1017.9 0.00 0 0.158
24 22:00 54.5 41.8 62 SSE 0 G 2 30.08 1018.5 0.00 0 0.157
24 21:00 56.8 39.9 53 Calm 30.07 1018.3 0.00 0 0.155
24 20:00 60.2 40.4 71.3 60.2 48 Calm 30.07 1018.2 0.00 0 0.154
24 19:00 65.1 41.5 42 WNW 0 G 3 30.08 1018.6 0.00 63 0.150
24 18:00 67.0 42.5 41 WNW 1 G 7 30.09 1018.9 0.00 199 0.144
24 17:00 67.9 42.7 40 W 2 G 9 30.10 1019.4 0.00 216 0.137
24 16:00 69.5 39.2 33 W 1 G 9 30.11 1019.6 0.00 294 0.127
24 15:00 71.3 41.5 34 W 2 G 15 30.12 1020.0 0.00 563 0.110
24 14:00 70.3 43.5 70.9 58.1 38 W 5 G 14 30.15 1020.9 0.00 520 0.090
24 13:00 69.5 44.8 41 WNW 8 G 17 30.17 1021.6 0.00 865 0.071
24 12:00 67.8 45.7 45 SSW 3 G 9 30.19 1022.5 0.00 756 0.053
24 11:00 66.1 43.6 44 W 3 G 14 30.22 1023.4 0.00 503 0.037
24 10:00 64.3 40.7 42 SW 5 G 16 30.24 1024.0 0.00 454 0.027
24 09:00 60.8 38.2 43 SSW 4 G 14 30.25 1024.3 0.00 125 0.022
24 08:00 58.1 38.5 58.1 52.7 48 S 5 G 17 30.24 1024.2 0.00 93 0.018
24 07:00 56.0 36.6 48 S 4 G 11 30.24 1024.1 0.00 51 0.016
24 06:00 55.7 35.2 46 S 3 G 16 30.22 1023.5 0.00 0 0.014
24 05:00 53.8 34.0 47 S 4 G 8 30.22 1023.4 0.00 0 0.011
24 04:00 52.8 30.3 42 S 4 G 9 30.22 1023.5 0.00 0 0.008
24 03:00 52.8 27.9 38 S 4 G 10 30.22 1023.5 0.00 0 0.005
24 02:00 53.1 26.9 57.8 42.0 36 S 3 G 10 30.23 1023.7 0.00 0 0.002
24 01:00 45.5 24.9 44 SSE 2 G 5 30.23 1023.8 0.00 0 0.000
24 00:00 42.3 28.6 58 SSE 3 G 7 30.25 1024.4 0.00 0 0.168
23 23:00 43.2 29.4 58 SW 2 G 3 30.26 1024.9 0.00 0 0.167
23 22:00 46.8 26.0 44 SW 1 G 2 30.27 1025.1 0.00 0 0.165
23 21:00 51.0 28.7 42 SW 0 G 1 30.27 1025.2 0.00 0 0.165

Data generated by WxSolution Version 1.9.0.6, Build 2017.01.14.